Weather at Susilo Airport

Public forecast

Using degrees Celsius for public forecast. Weather courtesy of forecast.io.

Closest aviation weather report (METAR) to Susilo Airport

Closest report is Simanggang Airport, 69.5 nm (128.8 km) N.

(retrieved 0 seconds ago)

Closest aviation forecast (TAF) to Susilo Airport

Forecast is more than 6 hours old.

Closest forecast is Sultan Aji Muhammad Sulaiman Sepinggan International Airport, 335.1 nm (620.7 km) ESE.

2024/05/22 18:00 (retrieved 10 hours ago)

TAF WALL 221700Z 2218/2324 25004KT 9999 FEW018CB SCT020 BECMG 2219/2221 SCT020